createdAt,value
2023-03-18T00:01:31.213Z,9.40
2023-03-18T00:06:13.746Z,9.40
2023-03-18T00:10:35.391Z,9.30
2023-03-18T00:14:53.741Z,9.30
2023-03-18T00:19:11.611Z,9.20
2023-03-18T00:23:29.849Z,9.20
2023-03-18T00:27:48.680Z,9.30
2023-03-18T00:32:09.316Z,9.20
2023-03-18T00:36:30.561Z,9.20
2023-03-18T00:41:04.381Z,9.10
2023-03-18T00:45:26.189Z,9.10
2023-03-18T00:49:45.071Z,9.10
2023-03-18T00:54:07.324Z,9.00
2023-03-18T00:58:27.464Z,9.00
2023-03-18T01:03:01.029Z,9.00
2023-03-18T01:07:25.308Z,8.90
2023-03-18T01:11:43.146Z,8.90
2023-03-18T01:16:01.779Z,8.90
2023-03-18T01:20:21.711Z,8.90
2023-03-18T01:24:43.388Z,8.90
2023-03-18T01:29:01.383Z,8.90
2023-03-18T01:33:24.358Z,8.90
2023-03-18T01:37:47.302Z,8.90
2023-03-18T01:42:09.420Z,9.00
2023-03-18T01:46:42.037Z,8.90
2023-03-18T01:51:08.018Z,9.00
2023-03-18T01:55:32.573Z,9.00
2023-03-18T01:59:54.317Z,9.00
2023-03-18T02:04:17.437Z,9.00
2023-03-18T02:08:36.612Z,9.00
2023-03-18T02:13:00.582Z,8.90
2023-03-18T02:17:28.018Z,8.90
2023-03-18T02:21:54.063Z,8.90
2023-03-18T02:26:22.858Z,8.80
2023-03-18T02:30:47.638Z,8.80
2023-03-18T02:35:11.749Z,8.80
2023-03-18T02:39:32.289Z,8.80
2023-03-18T02:43:51.954Z,8.70
2023-03-18T02:48:16.312Z,8.70
2023-03-18T02:52:35.453Z,8.70
2023-03-18T02:56:53.630Z,8.70
2023-03-18T03:01:11.711Z,8.70
2023-03-18T03:05:31.475Z,8.70
2023-03-18T03:09:50.923Z,8.70
2023-03-18T03:14:13.449Z,8.60
2023-03-18T03:18:32.957Z,8.60
2023-03-18T03:22:53.417Z,8.60
2023-03-18T03:27:12.530Z,8.60
2023-03-18T03:31:30.189Z,8.60
2023-03-18T03:35:48.490Z,8.50
2023-03-18T03:40:09.077Z,8.50
2023-03-18T03:44:27.411Z,8.50
2023-03-18T03:48:45.431Z,8.40
2023-03-18T03:53:07.446Z,8.40
2023-03-18T03:57:26.451Z,8.40
2023-03-18T04:01:46.387Z,8.40
2023-03-18T04:06:04.595Z,8.40
2023-03-18T04:10:26.573Z,8.40
2023-03-18T04:14:49.584Z,8.30
2023-03-18T04:19:10.323Z,8.30
2023-03-18T04:23:28.628Z,8.30
2023-03-18T04:27:49.578Z,8.30
2023-03-18T04:32:09.285Z,8.30
2023-03-18T04:36:29.332Z,8.30
2023-03-18T04:40:46.847Z,8.30
2023-03-18T04:45:05.574Z,8.20
2023-03-18T04:49:27.270Z,8.20
2023-03-18T04:53:46.961Z,8.30
2023-03-18T04:58:05.852Z,8.20
2023-03-18T05:02:29.884Z,8.20
2023-03-18T05:06:52.258Z,8.30
2023-03-18T05:11:15.027Z,8.20
2023-03-18T05:15:33.223Z,8.20
2023-03-18T05:19:51.674Z,8.20
2023-03-18T05:24:13.362Z,8.20
2023-03-18T05:28:34.088Z,8.20
2023-03-18T05:33:03.564Z,8.20
2023-03-18T05:37:40.262Z,8.30
2023-03-18T05:42:02.659Z,8.30
2023-03-18T05:46:22.885Z,8.30
2023-03-18T05:51:07.751Z,8.40
2023-03-18T05:55:29.491Z,8.40
2023-03-18T05:59:48.523Z,8.50
2023-03-18T06:04:10.275Z,8.50
2023-03-18T06:08:29.531Z,8.60
2023-03-18T06:12:47.860Z,8.70
2023-03-18T06:17:10.009Z,8.70
2023-03-18T06:21:31.651Z,8.80
2023-03-18T06:25:51.091Z,8.90
2023-03-18T06:30:13.335Z,8.90
2023-03-18T06:34:34.972Z,9.00
2023-03-18T06:38:54.320Z,9.10
2023-03-18T06:43:15.917Z,9.10
2023-03-18T06:47:37.135Z,9.20
2023-03-18T06:51:58.909Z,9.20
2023-03-18T06:56:18.435Z,9.30
2023-03-18T07:00:58.050Z,9.30
2023-03-18T07:05:23.083Z,9.40
2023-03-18T07:09:41.838Z,9.40
2023-03-18T07:14:02.028Z,9.70
2023-03-18T07:18:25.685Z,9.80
2023-03-18T07:22:44.585Z,10.00
2023-03-18T07:27:04.407Z,10.10
2023-03-18T07:31:26.407Z,10.10
2023-03-18T07:35:44.197Z,10.10
2023-03-18T07:40:01.950Z,10.10
2023-03-18T07:44:21.416Z,10.10
2023-03-18T07:48:41.323Z,10.20
2023-03-18T07:52:59.806Z,10.20
2023-03-18T07:57:17.585Z,10.30
2023-03-18T08:01:36.745Z,10.50
2023-03-18T08:05:57.426Z,10.70
2023-03-18T08:10:15.103Z,11.00
2023-03-18T08:14:32.708Z,11.30
2023-03-18T08:18:54.744Z,11.50
2023-03-18T08:23:13.068Z,11.60
2023-03-18T08:27:33.111Z,11.60
2023-03-18T08:31:51.392Z,11.70
2023-03-18T08:36:12.192Z,11.80
2023-03-18T08:40:30.280Z,11.90
2023-03-18T08:44:48.942Z,12.00
2023-03-18T08:49:07.882Z,12.10
2023-03-18T08:53:28.724Z,12.10
2023-03-18T08:57:50.087Z,12.10
2023-03-18T09:02:16.949Z,12.10
2023-03-18T09:06:37.070Z,12.20
2023-03-18T09:10:56.793Z,12.20
2023-03-18T09:15:20.737Z,12.20
2023-03-18T09:19:40.983Z,12.30
2023-03-18T09:23:59.170Z,12.30
2023-03-18T09:28:17.919Z,12.50
2023-03-18T09:32:37.883Z,12.60
2023-03-18T09:36:58.722Z,12.80
2023-03-18T09:41:30.112Z,12.80
2023-03-18T09:46:03.178Z,12.90
2023-03-18T09:50:33.572Z,13.20
2023-03-18T09:54:59.220Z,13.50
2023-03-18T09:59:22.737Z,13.80
2023-03-18T10:03:49.357Z,14.20
2023-03-18T10:08:14.825Z,14.50
2023-03-18T10:12:37.971Z,14.70
2023-03-18T10:17:07.168Z,15.00
2023-03-18T10:21:39.101Z,15.60
2023-03-18T10:26:05.892Z,16.40
2023-03-18T10:30:46.348Z,16.90
2023-03-18T10:35:19.936Z,17.10
2023-03-18T10:39:41.409Z,17.30
2023-03-18T10:44:04.558Z,17.30
2023-03-18T10:48:30.161Z,17.30
2023-03-18T10:52:54.192Z,17.30
2023-03-18T10:57:16.924Z,17.40
2023-03-18T11:01:38.600Z,17.40
2023-03-18T11:06:02.476Z,17.60
2023-03-18T11:10:28.358Z,18.00
2023-03-18T11:14:50.775Z,18.80
2023-03-18T11:19:32.162Z,19.90
2023-03-18T11:24:10.559Z,20.90
2023-03-18T11:28:31.140Z,21.50
2023-03-18T11:32:58.635Z,22.10
2023-03-18T11:37:21.470Z,22.50
2023-03-18T11:41:40.946Z,23.00
2023-03-18T11:46:03.998Z,23.30
2023-03-18T11:50:26.072Z,23.40
2023-03-18T11:55:15.231Z,23.40
2023-03-18T11:59:46.086Z,23.50
2023-03-18T12:04:24.030Z,23.50
2023-03-18T12:09:11.424Z,23.50
2023-03-18T12:13:43.385Z,23.40
2023-03-18T12:18:14.699Z,23.40
2023-03-18T12:23:04.463Z,23.30
2023-03-18T12:27:32.734Z,22.90
2023-03-18T12:32:06.895Z,22.50
2023-03-18T12:36:58.757Z,22.00
2023-03-18T12:41:27.981Z,21.20
2023-03-18T12:45:50.710Z,20.50
2023-03-18T12:50:20.403Z,20.00
2023-03-18T12:54:45.162Z,19.50
2023-03-18T12:59:09.407Z,19.20
2023-03-18T13:03:37.827Z,19.00
2023-03-18T13:08:22.432Z,18.90
2023-03-18T13:12:44.604Z,18.60
2023-03-18T13:17:04.782Z,18.40
2023-03-18T13:21:28.603Z,18.30
2023-03-18T13:26:03.105Z,18.20
2023-03-18T13:30:31.505Z,18.20
2023-03-18T13:35:24.933Z,18.20
2023-03-18T13:40:05.753Z,18.20
2023-03-18T13:44:29.322Z,18.20
2023-03-18T13:48:48.483Z,18.10
2023-03-18T13:53:23.621Z,18.20
2023-03-18T13:57:58.106Z,18.20
2023-03-18T14:02:45.709Z,18.20
2023-03-18T14:07:19.956Z,18.20
2023-03-18T14:11:50.070Z,18.20
2023-03-18T14:16:13.026Z,18.20
2023-03-18T14:20:42.284Z,18.20
2023-03-18T14:25:24.376Z,18.20
2023-03-18T14:29:44.364Z,18.10
2023-03-18T14:34:35.095Z,18.00
2023-03-18T14:39:03.108Z,18.00
2023-03-18T14:43:28.546Z,18.00
2023-03-18T14:47:49.506Z,18.00
2023-03-18T14:52:28.580Z,18.00
2023-03-18T14:56:56.078Z,18.00
2023-03-18T15:01:17.875Z,18.10
2023-03-18T15:05:37.881Z,18.10
2023-03-18T15:09:59.079Z,18.00
2023-03-18T15:14:27.122Z,18.00
2023-03-18T15:18:45.537Z,17.90
2023-03-18T15:23:10.300Z,17.70
2023-03-18T15:27:34.497Z,17.70
2023-03-18T15:31:55.173Z,17.60
2023-03-18T15:36:17.570Z,17.60
2023-03-18T15:40:46.228Z,17.60
2023-03-18T15:45:16.092Z,17.60
2023-03-18T15:49:34.323Z,17.60
2023-03-18T15:53:54.635Z,17.70
2023-03-18T15:58:21.842Z,17.70
2023-03-18T16:02:43.364Z,17.70
2023-03-18T16:07:01.859Z,17.60
2023-03-18T16:11:20.130Z,17.50
2023-03-18T16:15:38.062Z,17.50
2023-03-18T16:19:57.730Z,17.40
2023-03-18T16:24:17.527Z,17.30
2023-03-18T16:28:35.122Z,17.20
2023-03-18T16:32:54.907Z,17.10
2023-03-18T16:37:25.764Z,16.90
2023-03-18T16:41:46.134Z,16.90
2023-03-18T16:46:07.124Z,16.80
2023-03-18T16:50:30.832Z,16.70
2023-03-18T16:54:49.366Z,16.50
2023-03-18T16:59:13.716Z,16.30
2023-03-18T17:03:34.172Z,16.20
2023-03-18T17:07:57.469Z,16.10
2023-03-18T17:12:17.361Z,16.00
2023-03-18T17:16:39.435Z,15.90
2023-03-18T17:20:58.164Z,15.80
2023-03-18T17:25:19.752Z,15.70
2023-03-18T17:29:41.516Z,15.70
2023-03-18T17:34:01.830Z,15.60
2023-03-18T17:38:22.756Z,15.50
2023-03-18T17:42:44.349Z,15.50
2023-03-18T17:47:05.500Z,15.40
2023-03-18T17:51:24.962Z,15.30
2023-03-18T17:55:43.815Z,15.20
2023-03-18T18:00:02.837Z,15.20
2023-03-18T18:04:28.370Z,15.10
2023-03-18T18:08:48.846Z,15.00
2023-03-18T18:13:15.681Z,15.00
2023-03-18T18:17:38.935Z,14.90
2023-03-18T18:22:04.019Z,14.80
2023-03-18T18:26:24.155Z,14.70
2023-03-18T18:30:48.728Z,14.60
2023-03-18T18:35:07.228Z,14.60
2023-03-18T18:39:28.813Z,14.50
2023-03-18T18:43:48.547Z,14.40
2023-03-18T18:48:15.373Z,14.30
2023-03-18T18:52:34.170Z,14.20
2023-03-18T18:56:58.641Z,14.20
2023-03-18T19:01:16.456Z,14.20
2023-03-18T19:05:34.636Z,14.20
2023-03-18T19:09:55.916Z,14.10
2023-03-18T19:14:24.520Z,14.10
2023-03-18T19:18:46.719Z,14.00
2023-03-18T19:23:15.936Z,14.00
2023-03-18T19:27:38.765Z,13.90
2023-03-18T19:32:01.780Z,13.80
2023-03-18T19:36:26.747Z,13.80
2023-03-18T19:40:45.173Z,13.70
2023-03-18T19:45:07.803Z,13.60
2023-03-18T19:49:33.020Z,13.50
2023-03-18T19:53:51.196Z,13.40
2023-03-18T19:58:19.565Z,13.30
2023-03-18T20:02:41.308Z,13.10
2023-03-18T20:07:05.741Z,13.00
2023-03-18T20:11:26.800Z,12.90
2023-03-18T20:15:50.533Z,12.70
2023-03-18T20:20:17.175Z,12.60
2023-03-18T20:24:38.732Z,12.50
2023-03-18T20:29:01.273Z,12.30
2023-03-18T20:33:20.500Z,12.20
2023-03-18T20:37:37.721Z,12.10
2023-03-18T20:41:57.651Z,11.90
2023-03-18T20:46:18.039Z,11.90
2023-03-18T20:50:38.212Z,11.70
2023-03-18T20:54:57.314Z,11.60
2023-03-18T20:59:18.516Z,11.50
2023-03-18T21:03:38.465Z,11.40
2023-03-18T21:07:56.739Z,11.40
2023-03-18T21:12:18.136Z,11.30
2023-03-18T21:16:38.018Z,11.20
2023-03-18T21:20:57.591Z,11.20
2023-03-18T21:25:19.948Z,11.10
2023-03-18T21:29:39.049Z,11.00
2023-03-18T21:33:58.364Z,11.00
2023-03-18T21:38:18.684Z,10.90
2023-03-18T21:42:36.694Z,10.80
2023-03-18T21:46:54.259Z,10.70
2023-03-18T21:51:37.620Z,10.60
2023-03-18T21:55:58.096Z,10.60
2023-03-18T22:00:20.041Z,10.50
2023-03-18T22:04:40.278Z,10.40
2023-03-18T22:09:00.101Z,10.40
2023-03-18T22:13:21.663Z,10.30
2023-03-18T22:17:41.169Z,10.20
2023-03-18T22:21:59.123Z,10.10
2023-03-18T22:26:19.616Z,10.00
2023-03-18T22:30:38.320Z,9.90
2023-03-18T22:34:56.364Z,9.90
2023-03-18T22:39:14.192Z,9.90
2023-03-18T22:43:35.466Z,9.90
2023-03-18T22:47:54.799Z,9.90
2023-03-18T22:52:20.372Z,9.90
2023-03-18T22:56:38.284Z,9.90
2023-03-18T23:00:58.071Z,9.90
2023-03-18T23:05:19.843Z,9.90
2023-03-18T23:09:50.361Z,9.80
2023-03-18T23:14:15.513Z,9.80
2023-03-18T23:18:35.464Z,9.80
2023-03-18T23:22:54.529Z,9.80
2023-03-18T23:27:12.738Z,9.80
2023-03-18T23:31:31.183Z,9.80
2023-03-18T23:35:53.238Z,9.80
2023-03-18T23:40:13.508Z,9.80
2023-03-18T23:44:31.076Z,9.80
2023-03-18T23:48:48.849Z,9.90
2023-03-18T23:53:08.451Z,9.80
2023-03-18T23:57:29.046Z,9.90
